Fleischmanns, New York
Current Conditions -  °F | °C
As of 4:15 AM on Sunday 21 Dec 2014 (Local Time) from KMSV Reporting Station
Overcast Overcast  
Wind Chill: 25°   Ceiling: 800
Heat Index: 25°   Visibility: 4mi
Dew Point: 25°   Wind: 3mph
Humidity: 100%   Direction: 310°NW
Pressure: 30.22"   Gusts: NA
Location:  42.16°N, 74.53°W
Report Text: KMSV 210915Z AUTO 31003KT 4SM OVC008 M04/M04 A3022 RMK AO1
Loading
Personal Weather Stations






























Interactive Weather Map New forecast layout! Learn more

10-Day Weather Forecast

Advertisements
Track Severe Weather on mobile